createdAt,value
2023-03-23T00:14:26.422Z,11.7
2023-03-23T00:29:26.416Z,11.6
2023-03-23T00:44:26.454Z,11.6
2023-03-23T00:59:26.424Z,11.6
2023-03-23T01:14:26.428Z,11.1
2023-03-23T01:29:26.433Z,10.8
2023-03-23T01:44:26.415Z,11
2023-03-23T01:59:26.434Z,11.1
2023-03-23T02:14:26.448Z,11.1
2023-03-23T02:29:26.446Z,11.2
2023-03-23T02:44:26.433Z,11.2
2023-03-23T02:59:26.410Z,11.2
2023-03-23T03:14:26.411Z,11.1
2023-03-23T03:29:26.408Z,11.2
2023-03-23T03:44:26.439Z,11.1
2023-03-23T03:59:26.436Z,11.1
2023-03-23T04:14:26.407Z,11.1
2023-03-23T04:29:26.440Z,11.1
2023-03-23T04:44:26.464Z,11
2023-03-23T04:59:26.430Z,10.9
2023-03-23T05:14:26.401Z,10.8
2023-03-23T05:29:26.399Z,10.9
2023-03-23T05:44:26.417Z,10.9
2023-03-23T05:59:26.412Z,11
2023-03-23T06:14:26.454Z,10.9
2023-03-23T06:29:26.430Z,10.9
2023-03-23T06:44:26.442Z,11.1
2023-03-23T06:59:26.452Z,11.2
2023-03-23T07:14:26.434Z,11.4
2023-03-23T07:29:26.465Z,11.5
2023-03-23T07:44:26.443Z,11.7
2023-03-23T07:59:26.445Z,11.8
2023-03-23T08:14:26.403Z,11.9
2023-03-23T08:29:26.441Z,12.1
2023-03-23T08:44:26.426Z,12.1
2023-03-23T08:59:26.418Z,12
2023-03-23T09:14:26.431Z,12
2023-03-23T09:29:26.410Z,12.1
2023-03-23T09:44:26.416Z,12
2023-03-23T09:59:26.433Z,11.8
2023-03-23T10:14:26.446Z,12.1
2023-03-23T10:29:26.439Z,12.2
2023-03-23T10:44:26.443Z,11.5
2023-03-23T10:59:26.418Z,10.4
2023-03-23T11:14:26.451Z,9.9
2023-03-23T11:29:26.457Z,10.6
2023-03-23T11:44:26.428Z,11.1
2023-03-23T11:59:26.407Z,11
2023-03-23T12:14:30.123Z,11.9
2023-03-23T12:29:26.437Z,12.5
2023-03-23T12:44:26.444Z,12.4
2023-03-23T12:59:26.422Z,11.8
2023-03-23T13:14:26.442Z,11.5
2023-03-23T13:29:26.441Z,11.6
2023-03-23T13:44:26.425Z,11.7
2023-03-23T13:59:26.433Z,12
2023-03-23T14:14:26.455Z,11.7
2023-03-23T14:29:26.410Z,12.2
2023-03-23T14:44:26.453Z,12.9
2023-03-23T14:59:26.406Z,14.5
2023-03-23T15:14:26.423Z,14.6
2023-03-23T15:29:26.510Z,14.6
2023-03-23T15:44:26.413Z,15.3
2023-03-23T15:59:26.444Z,14.4
2023-03-23T16:14:26.415Z,14.2
2023-03-23T16:29:40.438Z,14.9
2023-03-23T16:44:26.449Z,14.7
2023-03-23T16:59:26.427Z,13.8
2023-03-23T17:14:26.450Z,13.8
2023-03-23T17:29:26.411Z,13.4
2023-03-23T17:44:26.438Z,13.3
2023-03-23T17:59:26.438Z,13.1
2023-03-23T18:14:26.440Z,12.8
2023-03-23T18:29:26.446Z,12.8
2023-03-23T18:44:26.411Z,12.6
2023-03-23T18:59:26.407Z,12.6
2023-03-23T19:14:26.422Z,12.6
2023-03-23T19:29:27.272Z,12.6
2023-03-23T19:44:26.426Z,12.6
2023-03-23T19:59:26.431Z,12.7
2023-03-23T20:14:26.538Z,12.8
2023-03-23T20:29:26.453Z,12.8
2023-03-23T20:44:26.419Z,12.9
2023-03-23T20:59:26.412Z,12.6
2023-03-23T21:14:26.440Z,12.4
2023-03-23T21:29:26.433Z,12.1
2023-03-23T21:44:26.455Z,11.9
2023-03-23T21:59:26.449Z,11.7
2023-03-23T22:14:26.434Z,11.4
2023-03-23T22:29:26.436Z,11.3
2023-03-23T22:44:26.443Z,11.3
2023-03-23T22:59:26.436Z,11.4
2023-03-23T23:14:26.418Z,11.6
2023-03-23T23:29:26.405Z,11.8
2023-03-23T23:44:26.424Z,12.1
2023-03-23T23:59:26.448Z,12.1
